createdAt,value
2018-02-24T00:00:04.543Z,-2.01
2018-02-24T00:01:18.800Z,-2
2018-02-24T00:02:33.134Z,-2.04
2018-02-24T00:03:47.425Z,-2.06
2018-02-24T00:05:01.732Z,-2.07
2018-02-24T00:06:16.053Z,-2.09
2018-02-24T00:07:29.825Z,-2.09
2018-02-24T00:08:43.412Z,-2.1
2018-02-24T00:09:57.454Z,-2.1
2018-02-24T00:11:11.455Z,-2.09
2018-02-24T00:12:26.203Z,-2.09
2018-02-24T00:13:39.747Z,-2.09
2018-02-24T00:14:54.029Z,-2.12
2018-02-24T00:16:08.292Z,-2.09
2018-02-24T00:17:22.607Z,-2.09
2018-02-24T00:18:36.139Z,-2.1
2018-02-24T00:19:50.623Z,-2.08
2018-02-24T00:21:04.910Z,-2.08
2018-02-24T00:22:18.941Z,-2.07
2018-02-24T00:23:32.685Z,-2.09
2018-02-24T00:24:46.932Z,-2.09
2018-02-24T00:26:01.187Z,-2.12
2018-02-24T00:27:15.713Z,-2.12
2018-02-24T00:28:29.975Z,-2.13
2018-02-24T00:29:44.225Z,-2.14
2018-02-24T00:30:58.566Z,-2.16
2018-02-24T00:32:12.794Z,-2.15
2018-02-24T00:33:26.794Z,-2.16
2018-02-24T00:34:40.601Z,-2.19
2018-02-24T00:35:54.871Z,-2.21
2018-02-24T00:37:08.645Z,-2.24
2018-02-24T00:38:22.931Z,-2.24
2018-02-24T00:39:36.688Z,-2.28
2018-02-24T00:40:50.434Z,-2.3
2018-02-24T00:42:04.701Z,-2.33
2018-02-24T00:43:18.714Z,-2.34
2018-02-24T00:44:32.474Z,-2.34
2018-02-24T00:45:46.482Z,-2.34
2018-02-24T00:47:01.004Z,-2.36
2018-02-24T00:48:15.255Z,-2.39
2018-02-24T00:49:29.255Z,-2.44
2018-02-24T00:50:43.552Z,-2.47
2018-02-24T00:51:58.057Z,-2.47
2018-02-24T00:53:12.304Z,-2.49
2018-02-24T00:54:26.311Z,-2.49
2018-02-24T00:55:40.321Z,-2.51
2018-02-24T00:56:54.339Z,-2.52
2018-02-24T00:58:08.353Z,-2.52
2018-02-24T00:59:22.613Z,-2.55
2018-02-24T01:00:36.613Z,-2.57
2018-02-24T01:01:50.869Z,-2.56
2018-02-24T01:03:04.881Z,-2.57
2018-02-24T01:04:19.271Z,-2.57
2018-02-24T01:05:33.798Z,-2.58
2018-02-24T01:06:47.058Z,-2.59
2018-02-24T01:08:01.540Z,-2.59
2018-02-24T01:09:15.802Z,-2.58
2018-02-24T01:10:44.223Z,-2.58
2018-02-24T01:11:58.444Z,-2.58
2018-02-24T01:13:12.887Z,-2.57
2018-02-24T01:14:26.657Z,-2.57
2018-02-24T01:15:40.933Z,-2.58
2018-02-24T01:16:54.702Z,-2.58
2018-02-24T01:18:08.769Z,-2.58
2018-02-24T01:19:22.803Z,-2.57
2018-02-24T01:20:37.037Z,-2.58
2018-02-24T01:21:51.544Z,-2.58
2018-02-24T01:23:05.791Z,-2.61
2018-02-24T01:24:20.030Z,-2.62
2018-02-24T01:25:34.072Z,-2.63
2018-02-24T01:26:48.802Z,-2.62
2018-02-24T01:28:02.535Z,-2.62
2018-02-24T01:29:17.037Z,-2.63
2018-02-24T01:30:31.041Z,-2.66
2018-02-24T01:31:45.512Z,-2.67
2018-02-24T01:32:59.754Z,-2.69
2018-02-24T01:34:14.052Z,-2.68
2018-02-24T01:35:28.786Z,-2.68
2018-02-24T01:36:43.607Z,-2.68
2018-02-24T01:37:58.155Z,-2.68
2018-02-24T01:39:12.385Z,-2.71
2018-02-24T01:40:26.863Z,-2.72
2018-02-24T01:41:41.368Z,-2.75
2018-02-24T01:42:55.689Z,-2.76
2018-02-24T01:44:09.437Z,-2.78
2018-02-24T01:45:23.414Z,-2.79
2018-02-24T01:46:38.120Z,-2.81
2018-02-24T01:47:52.619Z,-2.81
2018-02-24T01:49:06.100Z,-2.82
2018-02-24T01:50:20.572Z,-2.84
2018-02-24T01:51:34.569Z,-2.84
2018-02-24T01:52:48.288Z,-2.87
2018-02-24T01:54:01.770Z,-2.87
2018-02-24T01:55:15.511Z,-2.87
2018-02-24T01:56:30.034Z,-2.85
2018-02-24T01:57:44.014Z,-2.84
2018-02-24T01:58:58.503Z,-2.83
2018-02-24T02:00:27.449Z,-2.85
2018-02-24T02:01:41.708Z,-2.85
2018-02-24T02:02:55.536Z,-2.86
2018-02-24T02:04:09.768Z,-2.86
2018-02-24T02:05:24.015Z,-2.86
2018-02-24T02:06:38.264Z,-2.84
2018-02-24T02:07:52.752Z,-2.86
2018-02-24T02:09:06.851Z,-2.88
2018-02-24T02:10:21.568Z,-2.87
2018-02-24T02:11:36.043Z,-2.92
2018-02-24T02:12:50.029Z,-2.93
2018-02-24T02:14:04.727Z,-2.97
2018-02-24T02:15:18.708Z,-2.99
2018-02-24T02:16:32.686Z,-3.01
2018-02-24T02:17:46.670Z,-3.04
2018-02-24T02:19:00.629Z,-3.06
2018-02-24T02:20:14.631Z,-3.09
2018-02-24T02:21:28.377Z,-3.1
2018-02-24T02:22:42.138Z,-3.11
2018-02-24T02:23:56.393Z,-3.1
2018-02-24T02:25:10.837Z,-3.13
2018-02-24T02:26:24.577Z,-3.15
2018-02-24T02:27:38.809Z,-3.15
2018-02-24T02:28:52.797Z,-3.15
2018-02-24T02:30:06.524Z,-3.16
2018-02-24T02:31:21.037Z,-3.17
2018-02-24T02:32:35.272Z,-3.21
2018-02-24T02:33:49.507Z,-3.24
2018-02-24T02:35:03.526Z,-3.26
2018-02-24T02:36:17.049Z,-3.3
2018-02-24T02:37:31.334Z,-3.32
2018-02-24T02:38:45.800Z,-3.3
2018-02-24T02:40:00.521Z,-3.32
2018-02-24T02:41:14.798Z,-3.33
2018-02-24T02:42:28.663Z,-3.35
2018-02-24T02:43:42.916Z,-3.36
2018-02-24T02:44:56.888Z,-3.35
2018-02-24T02:46:11.148Z,-3.35
2018-02-24T02:47:25.380Z,-3.35
2018-02-24T02:48:39.921Z,-3.36
2018-02-24T02:49:54.461Z,-3.35
2018-02-24T02:51:09.177Z,-3.38
2018-02-24T02:52:23.677Z,-3.42
2018-02-24T02:53:37.693Z,-3.45
2018-02-24T02:54:52.183Z,-3.46
2018-02-24T02:56:05.969Z,-3.49
2018-02-24T02:57:20.189Z,-3.52
2018-02-24T02:58:34.689Z,-3.52
2018-02-24T02:59:48.931Z,-3.51
2018-02-24T03:01:02.476Z,-3.52
2018-02-24T03:02:16.470Z,-3.53
2018-02-24T03:03:30.698Z,-3.54
2018-02-24T03:04:44.973Z,-3.54
2018-02-24T03:05:59.185Z,-3.54
2018-02-24T03:07:12.700Z,-3.56
2018-02-24T03:08:26.712Z,-3.58
2018-02-24T03:09:41.434Z,-3.6
2018-02-24T03:10:55.691Z,-3.61
2018-02-24T03:12:10.148Z,-3.61
2018-02-24T03:13:24.375Z,-3.6
2018-02-24T03:14:38.621Z,-3.6
2018-02-24T03:15:52.952Z,-3.6
2018-02-24T03:17:06.484Z,-3.6
2018-02-24T03:18:20.778Z,-3.59
2018-02-24T03:19:35.013Z,-3.6
2018-02-24T03:20:49.513Z,-3.6
2018-02-24T03:22:02.984Z,-3.59
2018-02-24T03:23:16.772Z,-3.57
2018-02-24T03:24:30.773Z,-3.56
2018-02-24T03:25:44.509Z,-3.57
2018-02-24T03:26:58.252Z,-3.58
2018-02-24T03:28:12.963Z,-3.56
2018-02-24T03:29:26.953Z,-3.56
2018-02-24T03:30:41.415Z,-3.53
2018-02-24T03:31:55.894Z,-3.54
2018-02-24T03:33:10.134Z,-3.52
2018-02-24T03:34:24.098Z,-3.52
2018-02-24T03:35:37.850Z,-3.51
2018-02-24T03:36:52.320Z,-3.49
2018-02-24T03:38:06.279Z,-3.49
2018-02-24T03:39:20.249Z,-3.48
2018-02-24T03:40:34.214Z,-3.47
2018-02-24T03:41:48.193Z,-3.46
2018-02-24T03:43:02.429Z,-3.45
2018-02-24T03:44:16.188Z,-3.45
2018-02-24T03:45:30.878Z,-3.46
2018-02-24T03:46:44.623Z,-3.47
2018-02-24T03:47:59.077Z,-3.46
2018-02-24T03:49:13.450Z,-3.47
2018-02-24T03:50:26.938Z,-3.47
2018-02-24T03:51:41.386Z,-3.47
2018-02-24T03:52:55.358Z,-3.48
2018-02-24T03:54:09.352Z,-3.5
2018-02-24T03:55:23.336Z,-3.51
2018-02-24T03:56:37.573Z,-3.51
2018-02-24T03:57:51.552Z,-3.5
2018-02-24T03:59:05.772Z,-3.5
2018-02-24T04:00:20.041Z,-3.52
2018-02-24T04:01:34.239Z,-3.52
2018-02-24T04:02:48.437Z,-3.55
2018-02-24T04:04:01.914Z,-3.55
2018-02-24T04:05:16.368Z,-3.58
2018-02-24T04:06:30.360Z,-3.61
2018-02-24T04:07:44.188Z,-3.63
2018-02-24T04:08:57.924Z,-3.66
2018-02-24T04:10:11.918Z,-3.68
2018-02-24T04:11:26.639Z,-3.7
2018-02-24T04:12:40.848Z,-3.7
2018-02-24T04:13:55.323Z,-3.7
2018-02-24T04:15:09.325Z,-3.69
2018-02-24T04:16:23.706Z,-3.68
2018-02-24T04:17:38.468Z,-3.67
2018-02-24T04:18:51.968Z,-3.65
2018-02-24T04:20:05.982Z,-3.65
2018-02-24T04:21:19.963Z,-3.65
2018-02-24T04:22:46.203Z,-3.64
2018-02-24T04:23:59.702Z,-3.68
2018-02-24T04:25:14.244Z,-3.69
2018-02-24T04:26:28.715Z,-3.71
2018-02-24T04:27:43.440Z,-3.71
2018-02-24T04:28:57.426Z,-3.72
2018-02-24T04:30:11.184Z,-3.72
2018-02-24T04:31:24.691Z,-3.72
2018-02-24T04:32:38.170Z,-3.73
2018-02-24T04:33:52.671Z,-3.74
2018-02-24T04:35:06.893Z,-3.76
2018-02-24T04:36:21.358Z,-3.75
2018-02-24T04:37:35.828Z,-3.76
2018-02-24T04:38:49.802Z,-3.77
2018-02-24T04:40:04.033Z,-3.78
2018-02-24T04:41:17.761Z,-3.77
2018-02-24T04:42:31.538Z,-3.77
2018-02-24T04:43:45.717Z,-3.78
2018-02-24T04:44:59.224Z,-3.78
2018-02-24T04:46:13.219Z,-3.77
2018-02-24T04:47:27.438Z,-3.77
2018-02-24T04:48:41.436Z,-3.79
2018-02-24T04:49:55.431Z,-3.8
2018-02-24T04:51:09.678Z,-3.81
2018-02-24T04:52:24.407Z,-3.82
2018-02-24T04:53:38.386Z,-3.82
2018-02-24T04:54:52.406Z,-3.83
2018-02-24T04:56:06.524Z,-3.84
2018-02-24T04:57:20.734Z,-3.85
2018-02-24T04:58:34.972Z,-3.88
2018-02-24T04:59:48.972Z,-3.86
2018-02-24T05:01:02.954Z,-3.88
2018-02-24T05:02:16.202Z,-3.9
2018-02-24T05:03:30.690Z,-3.91
2018-02-24T05:04:44.683Z,-3.91
2018-02-24T05:05:58.416Z,-3.91
2018-02-24T05:07:12.648Z,-3.9
2018-02-24T05:08:26.892Z,-3.89
2018-02-24T05:09:40.410Z,-3.89
2018-02-24T05:10:54.894Z,-3.9
2018-02-24T05:12:09.391Z,-3.9
2018-02-24T05:13:23.600Z,-3.88
2018-02-24T05:14:37.568Z,-3.89
2018-02-24T05:15:51.316Z,-3.89
2018-02-24T05:17:05.303Z,-3.89
2018-02-24T05:18:19.802Z,-3.88
2018-02-24T05:19:34.298Z,-3.86
2018-02-24T05:20:48.546Z,-3.86
2018-02-24T05:22:03.012Z,-3.89
2018-02-24T05:23:16.972Z,-3.91
2018-02-24T05:24:31.177Z,-3.94
2018-02-24T05:25:45.154Z,-3.95
2018-02-24T05:26:59.621Z,-3.96
2018-02-24T05:28:14.116Z,-3.97
2018-02-24T05:29:28.688Z,-3.98
2018-02-24T05:30:42.205Z,-3.95
2018-02-24T05:31:56.414Z,-3.94
2018-02-24T05:33:10.416Z,-3.92
2018-02-24T05:34:25.136Z,-3.92
2018-02-24T05:35:39.390Z,-3.91
2018-02-24T05:36:53.985Z,-3.91
2018-02-24T05:38:07.809Z,-3.9
2018-02-24T05:39:22.092Z,-3.9
2018-02-24T05:40:36.089Z,-3.9
2018-02-24T05:41:49.841Z,-3.9
2018-02-24T05:43:04.100Z,-3.9
2018-02-24T05:44:17.856Z,-3.92
2018-02-24T05:45:32.133Z,-3.94
2018-02-24T05:46:46.137Z,-3.96
2018-02-24T05:48:00.158Z,-4.01
2018-02-24T05:49:13.907Z,-4.03
2018-02-24T05:50:28.384Z,-4.05
2018-02-24T05:51:42.656Z,-4.07
2018-02-24T05:52:57.386Z,-4.08
2018-02-24T05:54:11.407Z,-4.11
2018-02-24T05:55:25.453Z,-4.14
2018-02-24T05:56:39.209Z,-4.13
2018-02-24T05:57:53.226Z,-4.1
2018-02-24T05:59:07.462Z,-4.11
2018-02-24T06:00:21.940Z,-4.11
2018-02-24T06:01:36.395Z,-4.11
2018-02-24T06:02:50.802Z,-4.11
2018-02-24T06:04:05.033Z,-4.08
2018-02-24T06:05:19.498Z,-4.06
2018-02-24T06:06:33.978Z,-4.06
2018-02-24T06:07:48.210Z,-4.04
2018-02-24T06:09:02.442Z,-4.04
2018-02-24T06:10:16.685Z,-4.02
2018-02-24T06:11:30.455Z,-4.06
2018-02-24T06:12:43.707Z,-4.07
2018-02-24T06:13:57.420Z,-4.06
2018-02-24T06:15:11.148Z,-4.09
2018-02-24T06:16:25.630Z,-4.05
2018-02-24T06:17:39.635Z,-4.05
2018-02-24T06:18:53.866Z,-4.02
2018-02-24T06:20:08.087Z,-4.01
2018-02-24T06:21:22.078Z,-3.98
2018-02-24T06:22:36.310Z,-3.97
2018-02-24T06:23:50.520Z,-3.95
2018-02-24T06:25:05.026Z,-3.93
2018-02-24T06:26:19.307Z,-3.89
2018-02-24T06:27:33.579Z,-3.87
2018-02-24T06:28:47.542Z,-3.82
2018-02-24T06:30:01.296Z,-3.79
2018-02-24T06:31:15.547Z,-3.78
2018-02-24T06:32:29.554Z,-3.77
2018-02-24T06:33:43.345Z,-3.74
2018-02-24T06:34:57.111Z,-3.74
2018-02-24T06:36:11.206Z,-3.75
2018-02-24T06:37:25.231Z,-3.74
2018-02-24T06:38:39.457Z,-3.75
2018-02-24T06:39:53.207Z,-3.74
2018-02-24T06:41:07.201Z,-3.74
2018-02-24T06:42:21.431Z,-3.73
2018-02-24T06:43:34.939Z,-3.71
2018-02-24T06:44:49.220Z,-3.7
2018-02-24T06:46:02.954Z,-3.69
2018-02-24T06:47:17.441Z,-3.69
2018-02-24T06:48:31.695Z,-3.69
2018-02-24T06:49:45.932Z,-3.69
2018-02-24T06:51:00.174Z,-3.68
2018-02-24T06:52:14.382Z,-3.68
2018-02-24T06:53:28.854Z,-3.65
2018-02-24T06:54:43.180Z,-3.64
2018-02-24T06:55:57.484Z,-3.65
2018-02-24T06:57:11.987Z,-3.66
2018-02-24T06:58:26.230Z,-3.66
2018-02-24T06:59:40.230Z,-3.67
2018-02-24T07:00:54.678Z,-3.66
2018-02-24T07:02:08.691Z,-3.64
2018-02-24T07:03:22.682Z,-3.61
2018-02-24T07:04:36.907Z,-3.59
2018-02-24T07:05:50.916Z,-3.58
2018-02-24T07:07:05.155Z,-3.56
2018-02-24T07:08:19.883Z,-3.54
2018-02-24T07:09:33.979Z,-3.52
2018-02-24T07:10:47.983Z,-3.49
2018-02-24T07:12:01.496Z,-3.47
2018-02-24T07:13:15.779Z,-3.45
2018-02-24T07:14:29.755Z,-3.43
2018-02-24T07:15:44.210Z,-3.42
2018-02-24T07:16:58.444Z,-3.39
2018-02-24T07:18:12.433Z,-3.37
2018-02-24T07:19:26.490Z,-3.37
2018-02-24T07:20:40.030Z,-3.36
2018-02-24T07:21:54.021Z,-3.34
2018-02-24T07:23:08.267Z,-3.32
2018-02-24T07:24:22.245Z,-3.27
2018-02-24T07:25:36.259Z,-3.23
2018-02-24T07:26:50.055Z,-3.2
2018-02-24T07:28:04.374Z,-3.18
2018-02-24T07:29:18.614Z,-3.13
2018-02-24T07:30:32.416Z,-3.09
2018-02-24T07:31:46.145Z,-3.09
2018-02-24T07:33:00.616Z,-3.05
2018-02-24T07:34:14.665Z,-3.03
2018-02-24T07:35:28.622Z,-3.02
2018-02-24T07:36:42.874Z,-2.97
2018-02-24T07:37:57.585Z,-2.93
2018-02-24T07:39:12.079Z,-2.9
2018-02-24T07:40:26.124Z,-2.84
2018-02-24T07:41:40.608Z,-2.8
2018-02-24T07:42:54.977Z,-2.79
2018-02-24T07:44:09.262Z,-2.75
2018-02-24T07:45:23.036Z,-2.72
2018-02-24T07:46:37.039Z,-2.69
2018-02-24T07:47:51.084Z,-2.67
2018-02-24T07:49:05.362Z,-2.66
2018-02-24T07:50:19.702Z,-2.6
2018-02-24T07:51:33.714Z,-2.58
2018-02-24T07:52:47.490Z,-2.56
2018-02-24T07:54:02.098Z,-2.52
2018-02-24T07:55:15.408Z,-2.5
2018-02-24T07:56:29.715Z,-2.47
2018-02-24T07:57:44.434Z,-2.44
2018-02-24T07:58:58.462Z,-2.4
2018-02-24T08:00:12.708Z,-2.37
2018-02-24T08:01:26.749Z,-2.36
2018-02-24T08:02:40.523Z,-2.32
2018-02-24T08:03:54.543Z,-2.26
2018-02-24T08:05:08.798Z,-2.22
2018-02-24T08:06:23.512Z,-2.16
2018-02-24T08:07:37.515Z,-2.14
2018-02-24T08:08:51.773Z,-2.1
2018-02-24T08:10:06.044Z,-2.09
2018-02-24T08:11:20.064Z,-2
2018-02-24T08:12:34.572Z,-1.96
2018-02-24T08:13:48.836Z,-1.93
2018-02-24T08:15:02.609Z,-1.87
2018-02-24T08:16:17.017Z,-1.84
2018-02-24T08:17:31.038Z,-1.81
2018-02-24T08:18:45.310Z,-1.79
2018-02-24T08:19:59.367Z,-1.75
2018-02-24T08:21:13.701Z,-1.73
2018-02-24T08:22:27.728Z,-1.72
2018-02-24T08:23:42.008Z,-1.69
2018-02-24T08:24:56.015Z,-1.65
2018-02-24T08:26:10.033Z,-1.58
2018-02-24T08:27:24.278Z,-1.55
2018-02-24T08:28:38.296Z,-1.49
2018-02-24T08:29:52.810Z,-1.42
2018-02-24T08:31:07.284Z,-1.38
2018-02-24T08:32:21.538Z,-1.31
2018-02-24T08:33:36.050Z,-1.28
2018-02-24T08:34:50.095Z,-1.28
2018-02-24T08:36:04.374Z,-1.25
2018-02-24T08:37:18.385Z,-1.22
2018-02-24T08:38:31.865Z,-1.17
2018-02-24T08:39:45.327Z,-1.16
2018-02-24T08:40:59.614Z,-1.13
2018-02-24T08:42:13.119Z,-1.11
2018-02-24T08:43:26.642Z,-1.1
2018-02-24T08:44:40.618Z,-1.05
2018-02-24T08:45:54.684Z,-1.01
2018-02-24T08:47:08.448Z,-0.96
2018-02-24T08:48:22.499Z,-0.93
2018-02-24T08:49:36.116Z,-0.9
2018-02-24T08:50:50.134Z,-0.92
2018-02-24T08:52:03.650Z,-0.89
2018-02-24T08:53:18.386Z,-0.85
2018-02-24T08:54:32.903Z,-0.81
2018-02-24T08:55:46.681Z,-0.76
2018-02-24T08:57:00.702Z,-0.68
2018-02-24T08:58:14.942Z,-0.63
2018-02-24T08:59:28.425Z,-0.56
2018-02-24T09:00:42.419Z,-0.5
2018-02-24T09:01:57.137Z,-0.47
2018-02-24T09:03:11.681Z,-0.43
2018-02-24T09:04:26.171Z,-0.38
2018-02-24T09:05:40.186Z,-0.31
2018-02-24T09:06:54.460Z,-0.21
2018-02-24T09:08:08.474Z,-0.17
2018-02-24T09:09:22.969Z,-0.08
2018-02-24T09:10:36.551Z,-0.02
2018-02-24T09:11:50.795Z,0.03
2018-02-24T09:13:04.836Z,0.06
2018-02-24T09:14:18.952Z,0.09
2018-02-24T09:15:33.202Z,0.13
2018-02-24T09:16:46.706Z,0.22
2018-02-24T09:18:01.259Z,0.28
2018-02-24T09:19:15.497Z,0.33
2018-02-24T09:20:30.016Z,0.33
2018-02-24T09:21:44.302Z,0.35
2018-02-24T09:22:57.700Z,0.38
2018-02-24T09:24:12.491Z,0.41
2018-02-24T09:25:26.488Z,0.46
2018-02-24T09:26:40.567Z,0.49
2018-02-24T09:27:54.560Z,0.54
2018-02-24T09:29:09.081Z,0.6
2018-02-24T09:30:23.360Z,0.66
2018-02-24T09:31:36.921Z,0.74
2018-02-24T09:32:50.692Z,0.84
2018-02-24T09:34:04.971Z,0.93
2018-02-24T09:35:19.012Z,1.01
2018-02-24T09:36:32.731Z,1.1
2018-02-24T09:37:46.741Z,1.17
2018-02-24T09:39:00.766Z,1.23
2018-02-24T09:40:15.282Z,1.31
2018-02-24T09:41:29.500Z,1.37
2018-02-24T09:42:44.268Z,1.41
2018-02-24T09:43:58.140Z,1.42
2018-02-24T09:45:12.561Z,1.43
2018-02-24T09:46:27.136Z,1.46
2018-02-24T09:47:41.351Z,1.49
2018-02-24T09:48:55.378Z,1.55
2018-02-24T09:50:09.875Z,1.58
2018-02-24T09:51:24.118Z,1.62
2018-02-24T09:52:38.629Z,1.67
2018-02-24T09:53:52.388Z,1.73
2018-02-24T09:55:05.884Z,1.74
2018-02-24T09:56:20.010Z,1.76
2018-02-24T09:57:34.243Z,1.79
2018-02-24T09:58:48.024Z,1.83
2018-02-24T10:00:02.034Z,1.87
2018-02-24T10:01:16.329Z,1.89
2018-02-24T10:02:30.650Z,1.94
2018-02-24T10:03:44.211Z,1.99
2018-02-24T10:04:57.788Z,2.06
2018-02-24T10:06:11.854Z,2.08
2018-02-24T10:07:26.095Z,2.12
2018-02-24T10:08:39.894Z,2.13
2018-02-24T10:09:54.621Z,2.13
2018-02-24T10:11:09.113Z,2.19
2018-02-24T10:12:23.670Z,2.26
2018-02-24T10:13:37.459Z,2.33
2018-02-24T10:14:51.761Z,2.4
2018-02-24T10:16:05.935Z,2.47
2018-02-24T10:17:20.216Z,2.55
2018-02-24T10:18:35.018Z,2.66
2018-02-24T10:19:49.015Z,2.75
2018-02-24T10:21:03.273Z,2.87
2018-02-24T10:22:17.742Z,2.96
2018-02-24T10:23:31.975Z,3.03
2018-02-24T10:24:46.430Z,3.09
2018-02-24T10:26:01.489Z,3.14
2018-02-24T10:27:15.758Z,3.19
2018-02-24T10:28:30.014Z,3.22
2018-02-24T10:29:44.709Z,3.29
2018-02-24T10:30:59.170Z,3.32
2018-02-24T10:32:13.217Z,3.35
2018-02-24T10:33:27.214Z,3.35
2018-02-24T10:34:41.988Z,3.42
2018-02-24T10:35:56.038Z,3.43
2018-02-24T10:37:09.801Z,3.44
2018-02-24T10:38:24.354Z,3.47
2018-02-24T10:39:38.636Z,3.52
2018-02-24T10:40:52.696Z,3.54
2018-02-24T10:42:07.058Z,3.58
2018-02-24T10:43:21.121Z,3.6
2018-02-24T10:44:35.439Z,3.61
2018-02-24T10:45:50.205Z,3.64
2018-02-24T10:47:04.498Z,3.68
2018-02-24T10:48:19.057Z,3.73
2018-02-24T10:49:33.104Z,3.77
2018-02-24T10:50:47.121Z,3.8
2018-02-24T10:52:01.393Z,3.85
2018-02-24T10:53:15.400Z,3.9
2018-02-24T10:54:29.618Z,3.93
2018-02-24T10:55:43.649Z,3.98
2018-02-24T10:56:58.167Z,4.01
2018-02-24T10:58:12.402Z,4.07
2018-02-24T10:59:26.876Z,4.11
2018-02-24T11:00:40.868Z,4.11
2018-02-24T11:01:55.420Z,4.12
2018-02-24T11:03:09.773Z,4.16
2018-02-24T11:04:24.056Z,4.2
2018-02-24T11:05:38.305Z,4.2
2018-02-24T11:06:52.430Z,4.22
2018-02-24T11:08:07.176Z,4.27
2018-02-24T11:09:21.704Z,4.28
2018-02-24T11:10:35.988Z,4.28
2018-02-24T11:11:50.263Z,4.26
2018-02-24T11:13:04.260Z,4.26
2018-02-24T11:14:18.426Z,4.31
2018-02-24T11:15:32.453Z,4.33
2018-02-24T11:16:46.470Z,4.35
2018-02-24T11:18:00.740Z,4.37
2018-02-24T11:19:15.267Z,4.38
2018-02-24T11:20:29.318Z,4.38
2018-02-24T11:21:43.329Z,4.41
2018-02-24T11:22:57.468Z,4.38
2018-02-24T11:24:11.763Z,4.35
2018-02-24T11:25:26.032Z,4.34
2018-02-24T11:26:39.806Z,4.35
2018-02-24T11:27:54.319Z,4.36
2018-02-24T11:29:08.901Z,4.39
2018-02-24T11:30:23.424Z,4.43
2018-02-24T11:31:37.458Z,4.42
2018-02-24T11:32:52.061Z,4.41
2018-02-24T11:34:05.818Z,4.39
2018-02-24T11:35:19.792Z,4.39
2018-02-24T11:36:33.664Z,4.42
2018-02-24T11:37:48.432Z,4.47
2018-02-24T11:39:02.712Z,4.5
2018-02-24T11:40:16.967Z,4.54
2018-02-24T11:41:30.784Z,4.59
2018-02-24T11:42:45.282Z,4.63
2018-02-24T11:43:59.295Z,4.67
2018-02-24T11:45:13.303Z,4.73
2018-02-24T11:46:26.832Z,4.77
2018-02-24T11:47:40.983Z,4.77
2018-02-24T11:48:55.012Z,4.75
2018-02-24T11:50:09.264Z,4.75
2018-02-24T11:51:23.598Z,4.74
2018-02-24T11:52:37.880Z,4.76
2018-02-24T11:53:51.911Z,4.71
2018-02-24T11:55:05.432Z,4.68
2018-02-24T11:56:18.976Z,4.69
2018-02-24T11:57:33.216Z,4.71
2018-02-24T11:58:47.232Z,4.69
2018-02-24T12:00:01.324Z,4.72
2018-02-24T12:01:15.103Z,4.75
2018-02-24T12:02:29.552Z,4.8
2018-02-24T12:03:43.814Z,4.83
2018-02-24T12:04:58.109Z,4.84
2018-02-24T12:06:12.608Z,4.82
2018-02-24T12:07:27.130Z,4.81
2018-02-24T12:08:41.196Z,4.81
2018-02-24T12:09:56.063Z,4.83
2018-02-24T12:11:10.111Z,4.84
2018-02-24T12:12:24.600Z,4.85
2018-02-24T12:13:38.996Z,4.78
2018-02-24T12:14:53.413Z,4.74
2018-02-24T12:16:07.200Z,4.75
2018-02-24T12:17:21.024Z,4.78
2018-02-24T12:18:35.322Z,4.79
2018-02-24T12:19:49.604Z,4.77
2018-02-24T12:21:03.629Z,4.78
2018-02-24T12:22:18.404Z,4.77
2018-02-24T12:23:32.722Z,4.73
2018-02-24T12:24:47.256Z,4.75
2018-02-24T12:26:01.277Z,4.77
2018-02-24T12:27:15.542Z,4.8
2018-02-24T12:28:29.575Z,4.8
2018-02-24T12:29:43.603Z,4.71
2018-02-24T12:30:57.619Z,4.63
2018-02-24T12:32:11.905Z,4.67
2018-02-24T12:33:25.923Z,4.66
2018-02-24T12:34:40.183Z,4.74
2018-02-24T12:35:53.973Z,4.76
2018-02-24T12:37:08.025Z,4.73
2018-02-24T12:38:21.841Z,4.73
2018-02-24T12:39:36.156Z,4.7
2018-02-24T12:40:49.920Z,4.64
2018-02-24T12:42:04.702Z,4.65
2018-02-24T12:43:18.885Z,4.67
2018-02-24T12:44:32.670Z,4.7
2018-02-24T12:45:46.948Z,4.68
2018-02-24T12:47:01.427Z,4.68
2018-02-24T12:48:15.246Z,4.67
2018-02-24T12:49:29.539Z,4.63
2018-02-24T12:50:43.647Z,4.56
2018-02-24T12:51:57.696Z,4.56
2018-02-24T12:53:11.488Z,4.52
2018-02-24T12:54:26.058Z,4.48
2018-02-24T12:55:40.630Z,4.48
2018-02-24T12:56:54.930Z,4.47
2018-02-24T12:58:09.278Z,4.5
2018-02-24T12:59:23.090Z,4.45
2018-02-24T13:00:37.693Z,4.44
2018-02-24T13:01:52.266Z,4.44
2018-02-24T13:03:06.121Z,4.49
2018-02-24T13:04:20.185Z,4.52
2018-02-24T13:05:34.460Z,4.53
2018-02-24T13:06:49.003Z,4.57
2018-02-24T13:08:03.529Z,4.58
2018-02-24T13:09:17.584Z,4.57
2018-02-24T13:10:31.676Z,4.5
2018-02-24T13:11:45.767Z,4.48
2018-02-24T13:13:00.068Z,4.46
2018-02-24T13:14:14.104Z,4.5
2018-02-24T13:15:28.646Z,4.52
2018-02-24T13:16:43.306Z,4.59
2018-02-24T13:17:57.119Z,4.59
2018-02-24T13:19:11.203Z,4.58
2018-02-24T13:20:25.300Z,4.57
2018-02-24T13:21:39.916Z,4.55
2018-02-24T13:22:54.208Z,4.59
2018-02-24T13:24:08.501Z,4.62
2018-02-24T13:25:22.387Z,4.59
2018-02-24T13:26:36.821Z,4.59
2018-02-24T13:27:50.907Z,4.61
2018-02-24T13:29:04.989Z,4.62
2018-02-24T13:30:19.136Z,4.61
2018-02-24T13:31:33.450Z,4.65
2018-02-24T13:32:48.276Z,4.65
2018-02-24T13:34:02.879Z,4.63
2018-02-24T13:35:17.426Z,4.56
2018-02-24T13:36:31.736Z,4.51
2018-02-24T13:37:46.343Z,4.47
2018-02-24T13:39:00.942Z,4.43
2018-02-24T13:40:15.482Z,4.44
2018-02-24T13:41:30.250Z,4.43
2018-02-24T13:42:44.773Z,4.41
2018-02-24T13:43:59.083Z,4.41
2018-02-24T13:45:13.364Z,4.41
2018-02-24T13:46:27.640Z,4.4
2018-02-24T13:47:41.700Z,4.4
2018-02-24T13:48:55.771Z,4.38
2018-02-24T13:50:09.648Z,4.38
2018-02-24T13:51:23.483Z,4.35
2018-02-24T13:52:36.812Z,4.33
2018-02-24T13:53:51.121Z,4.32
2018-02-24T13:55:05.748Z,4.26
2018-02-24T13:56:20.326Z,4.26
2018-02-24T13:57:34.398Z,4.26
2018-02-24T13:58:48.441Z,4.31
2018-02-24T14:00:02.990Z,4.25
2018-02-24T14:01:17.276Z,4.24
2018-02-24T14:02:31.628Z,4.22
2018-02-24T14:03:45.982Z,4.24
2018-02-24T14:04:59.869Z,4.25
2018-02-24T14:06:14.174Z,4.22
2018-02-24T14:07:28.041Z,4.17
2018-02-24T14:08:42.615Z,4.17
2018-02-24T14:09:56.933Z,4.11
2018-02-24T14:11:10.836Z,4.09
2018-02-24T14:12:25.335Z,4.07
2018-02-24T14:13:40.200Z,4.04
2018-02-24T14:14:54.818Z,3.99
2018-02-24T14:16:08.994Z,4
2018-02-24T14:17:23.049Z,4.01
2018-02-24T14:18:37.395Z,4.03
2018-02-24T14:19:51.704Z,4
2018-02-24T14:21:05.788Z,3.99
2018-02-24T14:22:20.506Z,3.97
2018-02-24T14:23:35.053Z,3.97
2018-02-24T14:24:49.927Z,3.95
2018-02-24T14:26:04.227Z,3.91
2018-02-24T14:27:18.275Z,3.88
2018-02-24T14:28:31.850Z,3.85
2018-02-24T14:29:46.751Z,3.82
2018-02-24T14:31:01.814Z,3.82
2018-02-24T14:32:16.588Z,3.8
2018-02-24T14:33:31.158Z,3.77
2018-02-24T14:34:45.918Z,3.77
2018-02-24T14:36:00.215Z,3.76
2018-02-24T14:37:14.996Z,3.78
2018-02-24T14:38:29.329Z,3.79
2018-02-24T14:39:43.400Z,3.77
2018-02-24T14:40:58.044Z,3.77
2018-02-24T14:42:12.889Z,3.73
2018-02-24T14:43:26.896Z,3.76
2018-02-24T14:44:41.193Z,3.74
2018-02-24T14:45:54.988Z,3.74
2018-02-24T14:47:09.713Z,3.73
2018-02-24T14:48:24.245Z,3.77
2018-02-24T14:49:38.293Z,3.79
2018-02-24T14:50:52.406Z,3.86
2018-02-24T14:52:06.927Z,3.85
2018-02-24T14:53:21.220Z,3.79
2018-02-24T14:54:35.498Z,3.75
2018-02-24T14:55:49.746Z,3.74
2018-02-24T14:57:04.395Z,3.75
2018-02-24T14:58:18.690Z,3.77
2018-02-24T14:59:32.706Z,3.79
2018-02-24T15:00:46.709Z,3.76
2018-02-24T15:02:00.256Z,3.71
2018-02-24T15:03:14.518Z,3.63
2018-02-24T15:04:28.042Z,3.59
2018-02-24T15:05:42.328Z,3.55
2018-02-24T15:06:56.631Z,3.53
2018-02-24T15:08:11.410Z,3.54
2018-02-24T15:09:25.760Z,3.52
2018-02-24T15:10:40.456Z,3.49
2018-02-24T15:11:54.545Z,3.45
2018-02-24T15:13:09.123Z,3.43
2018-02-24T15:14:22.929Z,3.39
2018-02-24T15:15:37.574Z,3.35
2018-02-24T15:16:51.628Z,3.34
2018-02-24T15:18:05.464Z,3.35
2018-02-24T15:19:19.794Z,3.37
2018-02-24T15:20:33.866Z,3.37
2018-02-24T15:21:47.935Z,3.31
2018-02-24T15:23:01.944Z,3.29
2018-02-24T15:24:16.512Z,3.24
2018-02-24T15:25:30.976Z,3.24
2018-02-24T15:26:45.324Z,3.21
2018-02-24T15:27:59.832Z,3.15
2018-02-24T15:29:14.114Z,3.06
2018-02-24T15:30:28.717Z,3.02
2018-02-24T15:31:43.022Z,2.98
2018-02-24T15:32:57.303Z,2.99
2018-02-24T15:34:11.824Z,2.98
2018-02-24T15:35:26.078Z,2.95
2018-02-24T15:36:40.589Z,2.88
2018-02-24T15:37:54.372Z,2.81
2018-02-24T15:39:09.161Z,2.77
2018-02-24T15:40:23.447Z,2.71
2018-02-24T15:41:38.182Z,2.69
2018-02-24T15:42:52.443Z,2.64
2018-02-24T15:44:07.233Z,2.59
2018-02-24T15:45:21.222Z,2.52
2018-02-24T15:46:35.324Z,2.48
2018-02-24T15:47:49.057Z,2.47
2018-02-24T15:49:03.291Z,2.48
2018-02-24T15:50:17.075Z,2.45
2018-02-24T15:51:31.285Z,2.43
2018-02-24T15:52:45.551Z,2.43
2018-02-24T15:54:00.071Z,2.39
2018-02-24T15:55:13.858Z,2.41
2018-02-24T15:56:28.386Z,2.38
2018-02-24T15:57:42.427Z,2.4
2018-02-24T15:58:56.944Z,2.36
2018-02-24T16:00:11.184Z,2.33
2018-02-24T16:01:25.943Z,2.34
2018-02-24T16:02:40.296Z,2.35
2018-02-24T16:03:54.658Z,2.32
2018-02-24T16:05:09.151Z,2.29
2018-02-24T16:06:23.743Z,2.24
2018-02-24T16:07:37.764Z,2.23
2018-02-24T16:08:52.357Z,2.18
2018-02-24T16:10:06.647Z,2.17
2018-02-24T16:11:21.172Z,2.18
2018-02-24T16:12:35.457Z,2.12